sensor_id;sensor_type;location;lat;lon;timestamp;temperature;humidity
1592;DHT22;789;51.612;7.510;2022-07-30T00:02:13;21.00;1.00
1592;DHT22;789;51.612;7.510;2022-07-30T00:04:40;21.00;1.00
1592;DHT22;789;51.612;7.510;2022-07-30T00:07:08;21.00;1.00
1592;DHT22;789;51.612;7.510;2022-07-30T00:09:36;21.00;1.00
1592;DHT22;789;51.612;7.510;2022-07-30T00:12:03;21.00;1.00
1592;DHT22;789;51.612;7.510;2022-07-30T00:14:30;20.90;1.00
1592;DHT22;789;51.612;7.510;2022-07-30T00:16:59;20.90;1.00
1592;DHT22;789;51.612;7.510;2022-07-30T00:19:26;20.80;1.00
1592;DHT22;789;51.612;7.510;2022-07-30T00:21:53;20.80;1.00
1592;DHT22;789;51.612;7.510;2022-07-30T00:24:20;20.70;1.00
1592;DHT22;789;51.612;7.510;2022-07-30T00:26:48;20.70;1.00
1592;DHT22;789;51.612;7.510;2022-07-30T00:29:15;20.60;1.00
1592;DHT22;789;51.612;7.510;2022-07-30T00:31:41;20.60;1.00
1592;DHT22;789;51.612;7.510;2022-07-30T00:34:08;20.50;1.00
1592;DHT22;789;51.612;7.510;2022-07-30T00:36:36;20.40;1.00
1592;DHT22;789;51.612;7.510;2022-07-30T00:39:03;20.40;1.00
1592;DHT22;789;51.612;7.510;2022-07-30T00:41:30;20.30;1.00
1592;DHT22;789;51.612;7.510;2022-07-30T00:43:58;20.30;1.00
1592;DHT22;789;51.612;7.510;2022-07-30T00:46:24;20.30;1.00
1592;DHT22;789;51.612;7.510;2022-07-30T00:48:51;20.30;1.00
1592;DHT22;789;51.612;7.510;2022-07-30T00:51:18;20.20;1.00
1592;DHT22;789;51.612;7.510;2022-07-30T00:53:45;20.20;1.00
1592;DHT22;789;51.612;7.510;2022-07-30T00:56:11;20.20;1.00
1592;DHT22;789;51.612;7.510;2022-07-30T00:58:38;20.10;1.00
1592;DHT22;789;51.612;7.510;2022-07-30T01:01:06;20.10;1.00
1592;DHT22;789;51.612;7.510;2022-07-30T01:03:33;20.10;1.00
1592;DHT22;789;51.612;7.510;2022-07-30T01:06:00;20.10;1.00
1592;DHT22;789;51.612;7.510;2022-07-30T01:08:26;20.00;1.00
1592;DHT22;789;51.612;7.510;2022-07-30T01:10:53;20.00;1.00
1592;DHT22;789;51.612;7.510;2022-07-30T01:13:20;19.90;1.00
1592;DHT22;789;51.612;7.510;2022-07-30T01:15:47;19.90;1.00
1592;DHT22;789;51.612;7.510;2022-07-30T01:18:16;19.80;1.00
1592;DHT22;789;51.612;7.510;2022-07-30T01:20:49;19.70;1.00
1592;DHT22;789;51.612;7.510;2022-07-30T01:23:24;19.70;1.00
1592;DHT22;789;51.612;7.510;2022-07-30T01:25:55;19.70;1.00
1592;DHT22;789;51.612;7.510;2022-07-30T01:28:25;19.60;1.00
1592;DHT22;789;51.612;7.510;2022-07-30T01:30:53;19.60;1.00
1592;DHT22;789;51.612;7.510;2022-07-30T01:33:22;19.50;1.00
1592;DHT22;789;51.612;7.510;2022-07-30T01:35:50;19.50;1.00
1592;DHT22;789;51.612;7.510;2022-07-30T01:38:20;19.50;1.00
1592;DHT22;789;51.612;7.510;2022-07-30T01:40:48;19.40;1.00
1592;DHT22;789;51.612;7.510;2022-07-30T01:43:18;19.40;1.00
1592;DHT22;789;51.612;7.510;2022-07-30T01:45:46;19.40;1.00
1592;DHT22;789;51.612;7.510;2022-07-30T01:48:16;19.40;1.00
1592;DHT22;789;51.612;7.510;2022-07-30T01:50:46;19.30;1.00
1592;DHT22;789;51.612;7.510;2022-07-30T01:53:16;19.30;1.00
1592;DHT22;789;51.612;7.510;2022-07-30T01:55:43;19.30;1.00
1592;DHT22;789;51.612;7.510;2022-07-30T01:58:11;19.20;1.00
1592;DHT22;789;51.612;7.510;2022-07-30T02:00:42;19.20;1.00
1592;DHT22;789;51.612;7.510;2022-07-30T02:03:11;19.20;1.00
1592;DHT22;789;51.612;7.510;2022-07-30T02:05:40;19.10;1.00
1592;DHT22;789;51.612;7.510;2022-07-30T02:08:21;19.20;1.00
1592;DHT22;789;51.612;7.510;2022-07-30T02:10:53;19.10;1.00
1592;DHT22;789;51.612;7.510;2022-07-30T02:13:22;19.10;1.00
1592;DHT22;789;51.612;7.510;2022-07-30T02:15:55;19.00;1.00
1592;DHT22;789;51.612;7.510;2022-07-30T02:18:30;19.10;1.00
1592;DHT22;789;51.612;7.510;2022-07-30T02:21:02;19.00;1.00
1592;DHT22;789;51.612;7.510;2022-07-30T02:23:30;19.00;1.00
1592;DHT22;789;51.612;7.510;2022-07-30T02:25:59;19.00;1.00
1592;DHT22;789;51.612;7.510;2022-07-30T02:28:29;18.90;1.00
1592;DHT22;789;51.612;7.510;2022-07-30T02:31:07;18.90;1.00
1592;DHT22;789;51.612;7.510;2022-07-30T02:33:37;18.90;1.00
1592;DHT22;789;51.612;7.510;2022-07-30T02:36:06;18.90;1.00
1592;DHT22;789;51.612;7.510;2022-07-30T02:38:36;18.90;1.00
1592;DHT22;789;51.612;7.510;2022-07-30T02:41:03;18.90;1.00
1592;DHT22;789;51.612;7.510;2022-07-30T02:43:30;18.90;1.00
1592;DHT22;789;51.612;7.510;2022-07-30T02:45:59;18.90;1.00
1592;DHT22;789;51.612;7.510;2022-07-30T02:48:29;18.90;1.00
1592;DHT22;789;51.612;7.510;2022-07-30T02:50:58;18.90;1.00
1592;DHT22;789;51.612;7.510;2022-07-30T02:53:26;18.80;1.00
1592;DHT22;789;51.612;7.510;2022-07-30T02:55:54;18.70;1.00
1592;DHT22;789;51.612;7.510;2022-07-30T02:58:23;18.70;1.00
1592;DHT22;789;51.612;7.510;2022-07-30T03:00:53;18.70;1.00
1592;DHT22;789;51.612;7.510;2022-07-30T03:03:20;18.70;1.00
1592;DHT22;789;51.612;7.510;2022-07-30T03:05:50;18.60;1.00
1592;DHT22;789;51.612;7.510;2022-07-30T03:08:17;18.60;1.00
1592;DHT22;789;51.612;7.510;2022-07-30T03:10:45;18.60;1.00
1592;DHT22;789;51.612;7.510;2022-07-30T03:13:13;18.60;1.00
1592;DHT22;789;51.612;7.510;2022-07-30T03:15:42;18.60;1.00
1592;DHT22;789;51.612;7.510;2022-07-30T03:18:12;18.60;1.00
1592;DHT22;789;51.612;7.510;2022-07-30T03:20:45;18.50;1.00
1592;DHT22;789;51.612;7.510;2022-07-30T03:23:16;18.60;1.00
1592;DHT22;789;51.612;7.510;2022-07-30T03:25:46;18.50;1.00
1592;DHT22;789;51.612;7.510;2022-07-30T03:28:13;18.60;1.00
1592;DHT22;789;51.612;7.510;2022-07-30T03:30:41;18.60;1.00
1592;DHT22;789;51.612;7.510;2022-07-30T03:33:09;18.50;1.00
1592;DHT22;789;51.612;7.510;2022-07-30T03:35:37;18.50;1.00
1592;DHT22;789;51.612;7.510;2022-07-30T03:38:05;18.50;1.00
1592;DHT22;789;51.612;7.510;2022-07-30T03:40:33;18.50;1.00
1592;DHT22;789;51.612;7.510;2022-07-30T03:43:00;18.50;1.00
1592;DHT22;789;51.612;7.510;2022-07-30T03:45:27;18.50;1.00
1592;DHT22;789;51.612;7.510;2022-07-30T03:47:55;18.60;1.00
1592;DHT22;789;51.612;7.510;2022-07-30T03:50:22;18.50;1.00
1592;DHT22;789;51.612;7.510;2022-07-30T03:52:49;18.50;1.00
1592;DHT22;789;51.612;7.510;2022-07-30T03:55:16;18.40;1.00
1592;DHT22;789;51.612;7.510;2022-07-30T03:57:45;18.40;1.00
1592;DHT22;789;51.612;7.510;2022-07-30T04:00:13;18.40;1.00
1592;DHT22;789;51.612;7.510;2022-07-30T04:02:41;18.40;1.00
1592;DHT22;789;51.612;7.510;2022-07-30T04:05:08;18.30;1.00
1592;DHT22;789;51.612;7.510;2022-07-30T04:07:35;18.30;1.00
1592;DHT22;789;51.612;7.510;2022-07-30T04:10:02;18.30;1.00
1592;DHT22;789;51.612;7.510;2022-07-30T04:12:29;18.30;1.00
1592;DHT22;789;51.612;7.510;2022-07-30T04:14:57;18.20;1.00
1592;DHT22;789;51.612;7.510;2022-07-30T04:17:28;18.20;1.00
1592;DHT22;789;51.612;7.510;2022-07-30T04:20:02;18.20;1.00
1592;DHT22;789;51.612;7.510;2022-07-30T04:22:33;18.20;1.00
1592;DHT22;789;51.612;7.510;2022-07-30T04:25:01;18.10;1.00
1592;DHT22;789;51.612;7.510;2022-07-30T04:27:28;18.10;1.00
1592;DHT22;789;51.612;7.510;2022-07-30T04:29:57;18.10;1.00
1592;DHT22;789;51.612;7.510;2022-07-30T04:32:24;18.00;1.00
1592;DHT22;789;51.612;7.510;2022-07-30T04:34:53;18.00;1.00
1592;DHT22;789;51.612;7.510;2022-07-30T04:37:23;18.10;1.00
1592;DHT22;789;51.612;7.510;2022-07-30T04:39:51;18.10;1.00
1592;DHT22;789;51.612;7.510;2022-07-30T04:42:19;18.20;1.00
1592;DHT22;789;51.612;7.510;2022-07-30T04:44:46;18.20;1.00
1592;DHT22;789;51.612;7.510;2022-07-30T04:47:15;18.20;1.00
1592;DHT22;789;51.612;7.510;2022-07-30T04:49:42;18.20;1.00
1592;DHT22;789;51.612;7.510;2022-07-30T04:52:11;18.20;1.00
1592;DHT22;789;51.612;7.510;2022-07-30T04:54:41;18.20;1.00
1592;DHT22;789;51.612;7.510;2022-07-30T04:57:09;18.20;1.00
1592;DHT22;789;51.612;7.510;2022-07-30T04:59:37;18.30;1.00
1592;DHT22;789;51.612;7.510;2022-07-30T05:02:05;18.40;1.00
1592;DHT22;789;51.612;7.510;2022-07-30T05:04:35;18.40;1.00
1592;DHT22;789;51.612;7.510;2022-07-30T05:07:03;18.50;1.00
1592;DHT22;789;51.612;7.510;2022-07-30T05:09:31;18.50;1.00
1592;DHT22;789;51.612;7.510;2022-07-30T05:11:58;18.50;1.00
1592;DHT22;789;51.612;7.510;2022-07-30T05:14:25;18.50;1.00
1592;DHT22;789;51.612;7.510;2022-07-30T05:16:53;18.60;1.00
1592;DHT22;789;51.612;7.510;2022-07-30T05:19:20;18.60;1.00
1592;DHT22;789;51.612;7.510;2022-07-30T05:21:49;18.70;1.00
1592;DHT22;789;51.612;7.510;2022-07-30T05:24:16;18.80;1.00
1592;DHT22;789;51.612;7.510;2022-07-30T05:26:43;18.80;1.00
1592;DHT22;789;51.612;7.510;2022-07-30T05:29:10;18.80;1.00
1592;DHT22;789;51.612;7.510;2022-07-30T05:31:37;18.80;1.00
1592;DHT22;789;51.612;7.510;2022-07-30T05:34:04;18.90;1.00
1592;DHT22;789;51.612;7.510;2022-07-30T05:36:31;18.90;1.00
1592;DHT22;789;51.612;7.510;2022-07-30T05:38:59;19.00;1.00
1592;DHT22;789;51.612;7.510;2022-07-30T05:41:26;19.20;1.00
1592;DHT22;789;51.612;7.510;2022-07-30T05:43:53;19.40;1.00
1592;DHT22;789;51.612;7.510;2022-07-30T05:46:19;19.70;1.00
1592;DHT22;789;51.612;7.510;2022-07-30T05:48:46;19.80;1.00
1592;DHT22;789;51.612;7.510;2022-07-30T05:51:13;19.90;1.00
1592;DHT22;789;51.612;7.510;2022-07-30T05:53:40;20.00;1.00
1592;DHT22;789;51.612;7.510;2022-07-30T05:56:08;20.20;1.00
1592;DHT22;789;51.612;7.510;2022-07-30T05:58:35;20.30;1.00
1592;DHT22;789;51.612;7.510;2022-07-30T06:01:02;20.50;1.00
1592;DHT22;789;51.612;7.510;2022-07-30T06:03:28;20.70;1.00
1592;DHT22;789;51.612;7.510;2022-07-30T06:05:55;20.80;1.00
1592;DHT22;789;51.612;7.510;2022-07-30T06:08:22;21.00;1.00
1592;DHT22;789;51.612;7.510;2022-07-30T06:10:49;21.00;1.00
1592;DHT22;789;51.612;7.510;2022-07-30T06:13:17;21.20;1.00
1592;DHT22;789;51.612;7.510;2022-07-30T06:15:43;21.40;1.00
1592;DHT22;789;51.612;7.510;2022-07-30T06:18:10;21.40;1.00
1592;DHT22;789;51.612;7.510;2022-07-30T06:20:37;21.60;1.00
1592;DHT22;789;51.612;7.510;2022-07-30T06:23:04;21.80;1.00
1592;DHT22;789;51.612;7.510;2022-07-30T06:25:30;22.00;1.00
1592;DHT22;789;51.612;7.510;2022-07-30T06:27:57;22.10;1.00
1592;DHT22;789;51.612;7.510;2022-07-30T06:30:25;22.30;1.00
1592;DHT22;789;51.612;7.510;2022-07-30T06:32:54;22.20;1.00
1592;DHT22;789;51.612;7.510;2022-07-30T06:35:21;22.20;1.00
1592;DHT22;789;51.612;7.510;2022-07-30T06:37:47;22.30;1.00
1592;DHT22;789;51.612;7.510;2022-07-30T06:40:14;22.50;1.00
1592;DHT22;789;51.612;7.510;2022-07-30T06:42:41;22.70;1.00
1592;DHT22;789;51.612;7.510;2022-07-30T06:45:08;22.80;1.00
1592;DHT22;789;51.612;7.510;2022-07-30T06:47:37;23.00;1.00
1592;DHT22;789;51.612;7.510;2022-07-30T06:50:04;23.20;1.00
1592;DHT22;789;51.612;7.510;2022-07-30T06:52:31;23.30;1.00
1592;DHT22;789;51.612;7.510;2022-07-30T06:54:58;23.50;1.00
1592;DHT22;789;51.612;7.510;2022-07-30T06:57:25;23.60;1.00
1592;DHT22;789;51.612;7.510;2022-07-30T06:59:51;23.60;1.00
1592;DHT22;789;51.612;7.510;2022-07-30T07:02:18;23.60;1.00
1592;DHT22;789;51.612;7.510;2022-07-30T07:04:46;23.70;1.00
1592;DHT22;789;51.612;7.510;2022-07-30T07:07:13;23.70;1.00
1592;DHT22;789;51.612;7.510;2022-07-30T07:09:39;23.90;1.00
1592;DHT22;789;51.612;7.510;2022-07-30T07:12:06;24.10;1.00
1592;DHT22;789;51.612;7.510;2022-07-30T07:14:33;24.20;1.00
1592;DHT22;789;51.612;7.510;2022-07-30T07:17:00;24.00;1.00
1592;DHT22;789;51.612;7.510;2022-07-30T07:19:27;24.10;1.00
1592;DHT22;789;51.612;7.510;2022-07-30T07:21:55;24.30;1.00
1592;DHT22;789;51.612;7.510;2022-07-30T07:24:22;24.50;1.00
1592;DHT22;789;51.612;7.510;2022-07-30T07:26:49;24.60;1.00
1592;DHT22;789;51.612;7.510;2022-07-30T07:29:16;24.60;1.00
1592;DHT22;789;51.612;7.510;2022-07-30T07:31:43;24.80;1.00
1592;DHT22;789;51.612;7.510;2022-07-30T07:34:09;25.00;1.00
1592;DHT22;789;51.612;7.510;2022-07-30T07:36:36;25.10;1.00
1592;DHT22;789;51.612;7.510;2022-07-30T07:39:05;25.20;1.00
1592;DHT22;789;51.612;7.510;2022-07-30T07:41:34;25.50;1.00
1592;DHT22;789;51.612;7.510;2022-07-30T07:44:01;25.80;1.00
1592;DHT22;789;51.612;7.510;2022-07-30T07:46:28;26.20;1.00
1592;DHT22;789;51.612;7.510;2022-07-30T07:48:55;26.60;1.00
1592;DHT22;789;51.612;7.510;2022-07-30T07:51:21;27.00;1.00
1592;DHT22;789;51.612;7.510;2022-07-30T07:53:48;27.00;1.00
1592;DHT22;789;51.612;7.510;2022-07-30T07:56:16;27.30;1.00
1592;DHT22;789;51.612;7.510;2022-07-30T07:58:43;27.60;1.00
1592;DHT22;789;51.612;7.510;2022-07-30T08:01:11;27.80;1.00
1592;DHT22;789;51.612;7.510;2022-07-30T08:03:39;27.60;1.00
1592;DHT22;789;51.612;7.510;2022-07-30T08:06:06;27.70;1.00
1592;DHT22;789;51.612;7.510;2022-07-30T08:08:33;27.80;1.00
1592;DHT22;789;51.612;7.510;2022-07-30T08:11:01;28.00;1.00
1592;DHT22;789;51.612;7.510;2022-07-30T08:13:29;27.90;1.00
1592;DHT22;789;51.612;7.510;2022-07-30T08:15:55;27.80;1.00
1592;DHT22;789;51.612;7.510;2022-07-30T08:18:22;27.40;1.00
1592;DHT22;789;51.612;7.510;2022-07-30T08:20:49;27.00;1.00
1592;DHT22;789;51.612;7.510;2022-07-30T08:23:16;26.70;1.00
1592;DHT22;789;51.612;7.510;2022-07-30T08:25:43;26.40;1.00
1592;DHT22;789;51.612;7.510;2022-07-30T08:28:10;26.10;1.00
1592;DHT22;789;51.612;7.510;2022-07-30T08:30:38;25.90;1.00
1592;DHT22;789;51.612;7.510;2022-07-30T08:33:05;25.90;1.00
1592;DHT22;789;51.612;7.510;2022-07-30T08:35:31;26.10;1.00
1592;DHT22;789;51.612;7.510;2022-07-30T08:37:58;26.20;1.00
1592;DHT22;789;51.612;7.510;2022-07-30T08:40:25;26.20;1.00
1592;DHT22;789;51.612;7.510;2022-07-30T08:42:53;26.00;1.00
1592;DHT22;789;51.612;7.510;2022-07-30T08:45:19;25.90;1.00
1592;DHT22;789;51.612;7.510;2022-07-30T08:47:49;26.10;1.00
1592;DHT22;789;51.612;7.510;2022-07-30T08:50:17;26.20;1.00
1592;DHT22;789;51.612;7.510;2022-07-30T08:52:43;26.20;1.00
1592;DHT22;789;51.612;7.510;2022-07-30T08:55:10;26.60;1.00
1592;DHT22;789;51.612;7.510;2022-07-30T08:57:37;26.80;1.00
1592;DHT22;789;51.612;7.510;2022-07-30T09:00:05;27.50;1.00
1592;DHT22;789;51.612;7.510;2022-07-30T09:02:33;28.80;1.00
1592;DHT22;789;51.612;7.510;2022-07-30T09:05:02;29.60;1.00
1592;DHT22;789;51.612;7.510;2022-07-30T09:07:31;30.40;1.00
1592;DHT22;789;51.612;7.510;2022-07-30T09:09:58;31.30;1.00
1592;DHT22;789;51.612;7.510;2022-07-30T09:12:32;32.50;1.00
1592;DHT22;789;51.612;7.510;2022-07-30T09:15:08;33.60;1.00
1592;DHT22;789;51.612;7.510;2022-07-30T09:17:50;34.80;1.00
1592;DHT22;789;51.612;7.510;2022-07-30T09:20:19;35.60;1.00
1592;DHT22;789;51.612;7.510;2022-07-30T09:22:47;35.50;1.00
1592;DHT22;789;51.612;7.510;2022-07-30T09:25:14;36.10;1.00
1592;DHT22;789;51.612;7.510;2022-07-30T09:27:46;36.30;1.00
1592;DHT22;789;51.612;7.510;2022-07-30T09:30:14;36.80;1.00
1592;DHT22;789;51.612;7.510;2022-07-30T09:32:48;36.90;1.00
1592;DHT22;789;51.612;7.510;2022-07-30T09:35:15;36.90;1.00
1592;DHT22;789;51.612;7.510;2022-07-30T09:37:44;35.90;1.00
1592;DHT22;789;51.612;7.510;2022-07-30T09:40:13;35.10;1.00
1592;DHT22;789;51.612;7.510;2022-07-30T09:42:41;35.60;1.00
1592;DHT22;789;51.612;7.510;2022-07-30T09:45:10;36.10;1.00
1592;DHT22;789;51.612;7.510;2022-07-30T09:47:39;36.90;1.00
1592;DHT22;789;51.612;7.510;2022-07-30T09:50:07;38.00;1.00
1592;DHT22;789;51.612;7.510;2022-07-30T09:52:36;38.70;1.00
1592;DHT22;789;51.612;7.510;2022-07-30T09:55:05;38.90;1.00
1592;DHT22;789;51.612;7.510;2022-07-30T09:57:32;39.70;1.00
1592;DHT22;789;51.612;7.510;2022-07-30T10:00:16;40.30;1.00
1592;DHT22;789;51.612;7.510;2022-07-30T10:02:43;40.90;1.00
1592;DHT22;789;51.612;7.510;2022-07-30T10:05:13;41.50;1.00
1592;DHT22;789;51.612;7.510;2022-07-30T10:07:47;41.60;1.00
1592;DHT22;789;51.612;7.510;2022-07-30T10:10:18;42.40;1.00
1592;DHT22;789;51.612;7.510;2022-07-30T10:12:46;42.20;1.00
1592;DHT22;789;51.612;7.510;2022-07-30T10:15:14;41.70;1.00
1592;DHT22;789;51.612;7.510;2022-07-30T10:17:44;42.10;1.00
1592;DHT22;789;51.612;7.510;2022-07-30T10:20:11;41.80;1.00
1592;DHT22;789;51.612;7.510;2022-07-30T10:22:39;41.50;1.00
1592;DHT22;789;51.612;7.510;2022-07-30T10:25:08;41.10;1.00
1592;DHT22;789;51.612;7.510;2022-07-30T10:27:37;40.60;1.00
1592;DHT22;789;51.612;7.510;2022-07-30T10:30:05;41.10;1.00
1592;DHT22;789;51.612;7.510;2022-07-30T10:32:35;41.60;1.00
1592;DHT22;789;51.612;7.510;2022-07-30T10:35:03;41.70;1.00
1592;DHT22;789;51.612;7.510;2022-07-30T10:37:31;41.80;1.00
1592;DHT22;789;51.612;7.510;2022-07-30T10:40:04;41.40;1.00
1592;DHT22;789;51.612;7.510;2022-07-30T10:45:33;41.30;1.00
1592;DHT22;789;51.612;7.510;2022-07-30T10:48:04;42.20;1.00
1592;DHT22;789;51.612;7.510;2022-07-30T10:50:31;42.40;1.00
1592;DHT22;789;51.612;7.510;2022-07-30T10:52:59;42.40;1.00
1592;DHT22;789;51.612;7.510;2022-07-30T10:55:28;43.20;1.00
1592;DHT22;789;51.612;7.510;2022-07-30T10:58:01;43.20;1.00
1592;DHT22;789;51.612;7.510;2022-07-30T11:00:29;43.60;1.00
1592;DHT22;789;51.612;7.510;2022-07-30T11:03:18;43.60;1.00
1592;DHT22;789;51.612;7.510;2022-07-30T11:05:47;43.80;1.00
1592;DHT22;789;51.612;7.510;2022-07-30T11:08:32;43.90;1.00
1592;DHT22;789;51.612;7.510;2022-07-30T11:10:59;43.90;1.00
1592;DHT22;789;51.612;7.510;2022-07-30T11:13:49;44.20;1.00
1592;DHT22;789;51.612;7.510;2022-07-30T11:16:17;44.80;1.00
1592;DHT22;789;51.612;7.510;2022-07-30T11:19:07;44.70;1.00
1592;DHT22;789;51.612;7.510;2022-07-30T11:21:36;43.10;1.00
1592;DHT22;789;51.612;7.510;2022-07-30T11:24:04;41.80;1.00
1592;DHT22;789;51.612;7.510;2022-07-30T11:26:48;40.10;1.00
1592;DHT22;789;51.612;7.510;2022-07-30T11:29:39;39.10;1.00
1592;DHT22;789;51.612;7.510;2022-07-30T11:32:23;38.20;1.00
1592;DHT22;789;51.612;7.510;2022-07-30T11:34:50;36.90;1.00
1592;DHT22;789;51.612;7.510;2022-07-30T11:37:17;35.80;1.00
1592;DHT22;789;51.612;7.510;2022-07-30T11:40:09;35.00;1.00
1592;DHT22;789;51.612;7.510;2022-07-30T11:42:38;34.90;1.00
1592;DHT22;789;51.612;7.510;2022-07-30T11:45:20;35.00;1.00
1592;DHT22;789;51.612;7.510;2022-07-30T11:47:52;34.70;1.00
1592;DHT22;789;51.612;7.510;2022-07-30T11:50:20;34.90;1.00
1592;DHT22;789;51.612;7.510;2022-07-30T11:52:48;34.80;1.00
1592;DHT22;789;51.612;7.510;2022-07-30T11:55:22;34.50;1.00
1592;DHT22;789;51.612;7.510;2022-07-30T11:57:49;34.30;1.00
1592;DHT22;789;51.612;7.510;2022-07-30T12:00:16;33.80;1.00
1592;DHT22;789;51.612;7.510;2022-07-30T12:02:45;33.30;1.00
1592;DHT22;789;51.612;7.510;2022-07-30T12:05:13;32.80;1.00
1592;DHT22;789;51.612;7.510;2022-07-30T12:07:39;32.20;1.00
1592;DHT22;789;51.612;7.510;2022-07-30T12:10:13;31.60;1.00
1592;DHT22;789;51.612;7.510;2022-07-30T12:12:40;31.20;1.00
1592;DHT22;789;51.612;7.510;2022-07-30T12:15:08;31.00;1.00
1592;DHT22;789;51.612;7.510;2022-07-30T12:17:42;30.70;1.00
1592;DHT22;789;51.612;7.510;2022-07-30T12:20:18;30.50;1.00
1592;DHT22;789;51.612;7.510;2022-07-30T12:22:46;30.20;1.00
1592;DHT22;789;51.612;7.510;2022-07-30T12:25:13;30.00;1.00
1592;DHT22;789;51.612;7.510;2022-07-30T12:27:44;29.90;1.00
1592;DHT22;789;51.612;7.510;2022-07-30T12:30:12;29.80;1.00
1592;DHT22;789;51.612;7.510;2022-07-30T12:32:39;29.60;1.00
1592;DHT22;789;51.612;7.510;2022-07-30T12:35:07;29.40;1.00
1592;DHT22;789;51.612;7.510;2022-07-30T12:37:35;29.30;1.00
1592;DHT22;789;51.612;7.510;2022-07-30T12:40:10;29.40;1.00
1592;DHT22;789;51.612;7.510;2022-07-30T12:42:48;29.50;1.00
1592;DHT22;789;51.612;7.510;2022-07-30T12:45:25;29.50;1.00
1592;DHT22;789;51.612;7.510;2022-07-30T12:47:52;29.40;1.00
1592;DHT22;789;51.612;7.510;2022-07-30T12:50:18;29.40;1.00
1592;DHT22;789;51.612;7.510;2022-07-30T12:52:49;29.40;1.00
1592;DHT22;789;51.612;7.510;2022-07-30T12:55:18;29.40;1.00
1592;DHT22;789;51.612;7.510;2022-07-30T12:57:56;29.30;1.00
1592;DHT22;789;51.612;7.510;2022-07-30T13:00:24;29.20;1.00
1592;DHT22;789;51.612;7.510;2022-07-30T13:02:53;29.20;1.00
1592;DHT22;789;51.612;7.510;2022-07-30T13:05:20;29.10;1.00
1592;DHT22;789;51.612;7.510;2022-07-30T13:07:57;29.00;1.00
1592;DHT22;789;51.612;7.510;2022-07-30T13:10:25;29.00;1.00
1592;DHT22;789;51.612;7.510;2022-07-30T13:12:52;28.80;1.00
1592;DHT22;789;51.612;7.510;2022-07-30T13:15:20;28.80;1.00
1592;DHT22;789;51.612;7.510;2022-07-30T13:17:48;28.60;1.00
1592;DHT22;789;51.612;7.510;2022-07-30T13:20:15;28.40;1.00
1592;DHT22;789;51.612;7.510;2022-07-30T13:22:42;28.30;1.00
1592;DHT22;789;51.612;7.510;2022-07-30T13:25:11;28.10;1.00
1592;DHT22;789;51.612;7.510;2022-07-30T13:27:38;28.10;1.00
1592;DHT22;789;51.612;7.510;2022-07-30T13:30:05;28.10;1.00
1592;DHT22;789;51.612;7.510;2022-07-30T13:32:32;28.10;1.00
1592;DHT22;789;51.612;7.510;2022-07-30T13:34:59;28.10;1.00
1592;DHT22;789;51.612;7.510;2022-07-30T13:37:26;28.10;1.00
1592;DHT22;789;51.612;7.510;2022-07-30T13:39:52;28.20;1.00
1592;DHT22;789;51.612;7.510;2022-07-30T13:42:20;28.30;1.00
1592;DHT22;789;51.612;7.510;2022-07-30T13:44:47;28.30;1.00
1592;DHT22;789;51.612;7.510;2022-07-30T13:47:14;28.30;1.00
1592;DHT22;789;51.612;7.510;2022-07-30T13:49:41;28.50;1.00
1592;DHT22;789;51.612;7.510;2022-07-30T13:52:10;28.60;1.00
1592;DHT22;789;51.612;7.510;2022-07-30T13:54:37;28.60;1.00
1592;DHT22;789;51.612;7.510;2022-07-30T13:57:04;28.70;1.00
1592;DHT22;789;51.612;7.510;2022-07-30T13:59:34;28.60;1.00
1592;DHT22;789;51.612;7.510;2022-07-30T14:02:00;28.60;1.00
1592;DHT22;789;51.612;7.510;2022-07-30T14:04:28;28.60;1.00
1592;DHT22;789;51.612;7.510;2022-07-30T14:06:55;28.60;1.00
1592;DHT22;789;51.612;7.510;2022-07-30T14:09:22;28.70;1.00
1592;DHT22;789;51.612;7.510;2022-07-30T14:11:48;28.80;1.00
1592;DHT22;789;51.612;7.510;2022-07-30T14:14:15;28.90;1.00
1592;DHT22;789;51.612;7.510;2022-07-30T14:16:43;28.90;1.00
1592;DHT22;789;51.612;7.510;2022-07-30T14:19:11;29.00;1.00
1592;DHT22;789;51.612;7.510;2022-07-30T14:21:38;29.00;1.00
1592;DHT22;789;51.612;7.510;2022-07-30T14:24:05;29.00;1.00
1592;DHT22;789;51.612;7.510;2022-07-30T14:26:32;28.80;1.00
1592;DHT22;789;51.612;7.510;2022-07-30T14:28:58;28.80;1.00
1592;DHT22;789;51.612;7.510;2022-07-30T14:31:25;28.80;1.00
1592;DHT22;789;51.612;7.510;2022-07-30T14:33:53;28.90;1.00
1592;DHT22;789;51.612;7.510;2022-07-30T14:36:20;29.00;1.00
1592;DHT22;789;51.612;7.510;2022-07-30T14:38:47;29.10;1.00
1592;DHT22;789;51.612;7.510;2022-07-30T14:41:13;29.00;1.00
1592;DHT22;789;51.612;7.510;2022-07-30T14:43:40;29.00;1.00
1592;DHT22;789;51.612;7.510;2022-07-30T14:46:07;28.90;1.00
1592;DHT22;789;51.612;7.510;2022-07-30T14:48:33;28.80;1.00
1592;DHT22;789;51.612;7.510;2022-07-30T14:51:01;28.80;1.00
1592;DHT22;789;51.612;7.510;2022-07-30T14:53:29;28.80;1.00
1592;DHT22;789;51.612;7.510;2022-07-30T14:55:56;28.80;1.00
1592;DHT22;789;51.612;7.510;2022-07-30T14:58:22;28.90;1.00
1592;DHT22;789;51.612;7.510;2022-07-30T15:00:49;28.80;1.00
1592;DHT22;789;51.612;7.510;2022-07-30T15:03:16;28.80;1.00
1592;DHT22;789;51.612;7.510;2022-07-30T15:05:43;28.80;1.00
1592;DHT22;789;51.612;7.510;2022-07-30T15:08:11;28.80;1.00
1592;DHT22;789;51.612;7.510;2022-07-30T15:10:38;28.90;1.00
1592;DHT22;789;51.612;7.510;2022-07-30T15:13:05;28.90;1.00
1592;DHT22;789;51.612;7.510;2022-07-30T15:15:32;28.70;1.00
1592;DHT22;789;51.612;7.510;2022-07-30T15:17:59;28.60;1.00
1592;DHT22;789;51.612;7.510;2022-07-30T15:20:26;28.60;1.00
1592;DHT22;789;51.612;7.510;2022-07-30T15:22:53;28.60;1.00
1592;DHT22;789;51.612;7.510;2022-07-30T15:25:21;28.60;1.00
1592;DHT22;789;51.612;7.510;2022-07-30T15:27:48;28.60;1.00
1592;DHT22;789;51.612;7.510;2022-07-30T15:30:16;28.60;1.00
1592;DHT22;789;51.612;7.510;2022-07-30T15:32:43;28.60;1.00
1592;DHT22;789;51.612;7.510;2022-07-30T15:35:10;28.60;1.00
1592;DHT22;789;51.612;7.510;2022-07-30T15:37:37;28.50;1.00
1592;DHT22;789;51.612;7.510;2022-07-30T15:40:04;28.50;1.00
1592;DHT22;789;51.612;7.510;2022-07-30T15:42:32;28.40;1.00
1592;DHT22;789;51.612;7.510;2022-07-30T15:45:01;28.40;1.00
1592;DHT22;789;51.612;7.510;2022-07-30T15:47:28;28.40;1.00
1592;DHT22;789;51.612;7.510;2022-07-30T15:49:54;28.30;1.00
1592;DHT22;789;51.612;7.510;2022-07-30T15:52:21;28.30;1.00
1592;DHT22;789;51.612;7.510;2022-07-30T15:54:48;28.40;1.00
1592;DHT22;789;51.612;7.510;2022-07-30T15:57:15;28.40;1.00
1592;DHT22;789;51.612;7.510;2022-07-30T15:59:43;28.40;1.00
1592;DHT22;789;51.612;7.510;2022-07-30T16:02:09;28.30;1.00
1592;DHT22;789;51.612;7.510;2022-07-30T16:04:36;28.30;1.00
1592;DHT22;789;51.612;7.510;2022-07-30T16:07:03;28.30;1.00
1592;DHT22;789;51.612;7.510;2022-07-30T16:09:30;28.20;1.00
1592;DHT22;789;51.612;7.510;2022-07-30T16:11:57;28.20;1.00
1592;DHT22;789;51.612;7.510;2022-07-30T16:14:24;28.20;1.00
1592;DHT22;789;51.612;7.510;2022-07-30T16:16:52;28.20;1.00
1592;DHT22;789;51.612;7.510;2022-07-30T16:19:19;28.10;1.00
1592;DHT22;789;51.612;7.510;2022-07-30T16:21:45;28.10;1.00
1592;DHT22;789;51.612;7.510;2022-07-30T16:24:12;28.10;1.00
1592;DHT22;789;51.612;7.510;2022-07-30T16:26:39;28.00;1.00
1592;DHT22;789;51.612;7.510;2022-07-30T16:29:05;28.00;1.00
1592;DHT22;789;51.612;7.510;2022-07-30T16:31:33;27.90;1.00
1592;DHT22;789;51.612;7.510;2022-07-30T16:34:02;27.80;1.00
1592;DHT22;789;51.612;7.510;2022-07-30T16:36:28;27.80;1.00
1592;DHT22;789;51.612;7.510;2022-07-30T16:38:55;27.80;1.00
1592;DHT22;789;51.612;7.510;2022-07-30T16:41:22;27.80;1.00
1592;DHT22;789;51.612;7.510;2022-07-30T16:43:49;27.70;1.00
1592;DHT22;789;51.612;7.510;2022-07-30T16:46:15;27.70;1.00